sensor_id;sensor_type;location;lat;lon;timestamp;temperature;humidity
26821;DHT22;37186;51.394;5.454;2022-11-04T00:00:38;13.90;79.40
26821;DHT22;37186;51.394;5.454;2022-11-04T00:03:39;13.80;79.40
26821;DHT22;37186;51.394;5.454;2022-11-04T00:06:39;13.80;79.50
26821;DHT22;37186;51.394;5.454;2022-11-04T00:09:40;13.80;79.50
26821;DHT22;37186;51.394;5.454;2022-11-04T00:12:40;13.80;79.50
26821;DHT22;37186;51.394;5.454;2022-11-04T00:15:41;13.80;79.60
26821;DHT22;37186;51.394;5.454;2022-11-04T00:19:00;13.80;79.40
26821;DHT22;37186;51.394;5.454;2022-11-04T00:22:01;13.80;79.50
26821;DHT22;37186;51.394;5.454;2022-11-04T00:25:20;13.80;79.60
26821;DHT22;37186;51.394;5.454;2022-11-04T00:28:39;13.70;79.60
26821;DHT22;37186;51.394;5.454;2022-11-04T00:31:43;13.70;79.40
26821;DHT22;37186;51.394;5.454;2022-11-04T00:35:02;13.70;79.50
26821;DHT22;37186;51.394;5.454;2022-11-04T00:38:03;13.70;79.40
26821;DHT22;37186;51.394;5.454;2022-11-04T00:41:04;13.70;79.50
26821;DHT22;37186;51.394;5.454;2022-11-04T00:44:24;13.60;79.40
26821;DHT22;37186;51.394;5.454;2022-11-04T00:47:25;13.60;79.80
26821;DHT22;37186;51.394;5.454;2022-11-04T00:50:25;13.60;79.40
26821;DHT22;37186;51.394;5.454;2022-11-04T00:53:26;13.60;79.40
26821;DHT22;37186;51.394;5.454;2022-11-04T00:56:26;13.60;79.40
26821;DHT22;37186;51.394;5.454;2022-11-04T00:59:27;13.60;79.50
26821;DHT22;37186;51.394;5.454;2022-11-04T01:02:27;13.60;79.60
26821;DHT22;37186;51.394;5.454;2022-11-04T01:05:28;13.60;80.30
26821;DHT22;37186;51.394;5.454;2022-11-04T01:08:28;13.60;79.70
26821;DHT22;37186;51.394;5.454;2022-11-04T01:11:29;13.60;79.70
26821;DHT22;37186;51.394;5.454;2022-11-04T01:14:30;13.50;79.50
26821;DHT22;37186;51.394;5.454;2022-11-04T01:17:31;13.50;79.50
26821;DHT22;37186;51.394;5.454;2022-11-04T01:20:32;13.50;79.50
26821;DHT22;37186;51.394;5.454;2022-11-04T01:23:34;13.50;79.60
26821;DHT22;37186;51.394;5.454;2022-11-04T01:26:34;13.50;79.80
26821;DHT22;37186;51.394;5.454;2022-11-04T01:29:35;13.50;79.40
26821;DHT22;37186;51.394;5.454;2022-11-04T01:32:36;13.40;79.50
26821;DHT22;37186;51.394;5.454;2022-11-04T01:35:36;13.40;79.70
26821;DHT22;37186;51.394;5.454;2022-11-04T01:38:37;13.40;79.70
26821;DHT22;37186;51.394;5.454;2022-11-04T01:41:37;13.40;79.40
26821;DHT22;37186;51.394;5.454;2022-11-04T01:47:49;13.40;79.80
26821;DHT22;37186;51.394;5.454;2022-11-04T01:50:51;13.40;79.50
26821;DHT22;37186;51.394;5.454;2022-11-04T01:53:54;13.30;79.50
26821;DHT22;37186;51.394;5.454;2022-11-04T01:56:56;13.30;79.40
26821;DHT22;37186;51.394;5.454;2022-11-04T01:59:59;13.30;79.40
26821;DHT22;37186;51.394;5.454;2022-11-04T02:03:17;13.30;79.60
26821;DHT22;37186;51.394;5.454;2022-11-04T02:06:20;13.20;79.40
26821;DHT22;37186;51.394;5.454;2022-11-04T02:09:22;13.20;79.40
26821;DHT22;37186;51.394;5.454;2022-11-04T02:12:23;13.20;79.40
26821;DHT22;37186;51.394;5.454;2022-11-04T02:29:36;13.10;79.60
26821;DHT22;37186;51.394;5.454;2022-11-04T02:36:11;13.00;79.40
26821;DHT22;37186;51.394;5.454;2022-11-04T02:46:03;12.90;79.40
26821;DHT22;37186;51.394;5.454;2022-11-04T02:49:13;12.90;79.30
26821;DHT22;37186;51.394;5.454;2022-11-04T02:55:44;12.90;79.40
26821;DHT22;37186;51.394;5.454;2022-11-04T02:58:52;12.90;79.30
26821;DHT22;37186;51.394;5.454;2022-11-04T03:01:55;12.80;79.30
26821;DHT22;37186;51.394;5.454;2022-11-04T03:04:57;12.80;79.30
26821;DHT22;37186;51.394;5.454;2022-11-04T03:08:03;12.80;79.30
26821;DHT22;37186;51.394;5.454;2022-11-04T03:11:09;12.80;79.30
26821;DHT22;37186;51.394;5.454;2022-11-04T03:14:15;12.80;79.30
26821;DHT22;37186;51.394;5.454;2022-11-04T03:17:31;12.70;79.30
26821;DHT22;37186;51.394;5.454;2022-11-04T03:20:37;12.80;79.40
26821;DHT22;37186;51.394;5.454;2022-11-04T03:23:40;12.70;79.30
26821;DHT22;37186;51.394;5.454;2022-11-04T03:26:45;12.70;79.30
26821;DHT22;37186;51.394;5.454;2022-11-04T03:30:01;12.70;79.40
26821;DHT22;37186;51.394;5.454;2022-11-04T03:33:28;12.70;79.30
26821;DHT22;37186;51.394;5.454;2022-11-04T03:36:33;12.60;79.40
26821;DHT22;37186;51.394;5.454;2022-11-04T03:39:33;12.60;79.30
26821;DHT22;37186;51.394;5.454;2022-11-04T03:42:39;12.60;79.30
26821;DHT22;37186;51.394;5.454;2022-11-04T03:45:41;12.60;79.40
26821;DHT22;37186;51.394;5.454;2022-11-04T03:48:42;12.60;79.30
26821;DHT22;37186;51.394;5.454;2022-11-04T03:51:45;12.60;79.40
26821;DHT22;37186;51.394;5.454;2022-11-04T03:54:46;12.60;79.40
26821;DHT22;37186;51.394;5.454;2022-11-04T03:57:54;12.50;79.30
26821;DHT22;37186;51.394;5.454;2022-11-04T04:01:24;12.50;79.30
26821;DHT22;37186;51.394;5.454;2022-11-04T04:04:29;12.50;79.30
26821;DHT22;37186;51.394;5.454;2022-11-04T04:07:34;12.50;79.40
26821;DHT22;37186;51.394;5.454;2022-11-04T04:10:51;12.50;79.40
26821;DHT22;37186;51.394;5.454;2022-11-04T04:14:10;12.50;79.30
26821;DHT22;37186;51.394;5.454;2022-11-04T04:17:32;12.40;79.30
26821;DHT22;37186;51.394;5.454;2022-11-04T04:20:35;12.40;79.40
26821;DHT22;37186;51.394;5.454;2022-11-04T04:23:39;12.40;79.30
26821;DHT22;37186;51.394;5.454;2022-11-04T04:27:01;12.40;79.40
26821;DHT22;37186;51.394;5.454;2022-11-04T04:30:20;12.40;79.30
26821;DHT22;37186;51.394;5.454;2022-11-04T04:33:21;12.30;79.30
26821;DHT22;37186;51.394;5.454;2022-11-04T04:36:21;12.30;79.20
26821;DHT22;37186;51.394;5.454;2022-11-04T04:39:26;12.30;79.30
26821;DHT22;37186;51.394;5.454;2022-11-04T04:42:46;12.30;79.30
26821;DHT22;37186;51.394;5.454;2022-11-04T04:46:06;12.30;79.40
26821;DHT22;37186;51.394;5.454;2022-11-04T04:49:07;12.30;79.30
26821;DHT22;37186;51.394;5.454;2022-11-04T04:52:08;12.30;79.30
26821;DHT22;37186;51.394;5.454;2022-11-04T04:55:10;12.30;79.30
26821;DHT22;37186;51.394;5.454;2022-11-04T04:58:10;12.20;79.30
26821;DHT22;37186;51.394;5.454;2022-11-04T05:01:11;12.20;79.30
26821;DHT22;37186;51.394;5.454;2022-11-04T05:04:11;12.20;79.30
26821;DHT22;37186;51.394;5.454;2022-11-04T05:07:12;12.20;79.30
26821;DHT22;37186;51.394;5.454;2022-11-04T05:10:14;12.20;79.30
26821;DHT22;37186;51.394;5.454;2022-11-04T05:13:15;12.10;79.20
26821;DHT22;37186;51.394;5.454;2022-11-04T05:16:25;12.20;79.40
26821;DHT22;37186;51.394;5.454;2022-11-04T05:19:26;12.10;79.30
26821;DHT22;37186;51.394;5.454;2022-11-04T05:22:27;12.10;79.30
26821;DHT22;37186;51.394;5.454;2022-11-04T05:25:27;12.10;79.30
26821;DHT22;37186;51.394;5.454;2022-11-04T05:28:28;12.10;79.30
26821;DHT22;37186;51.394;5.454;2022-11-04T05:31:28;12.10;79.30
26821;DHT22;37186;51.394;5.454;2022-11-04T05:34:29;12.10;79.20
26821;DHT22;37186;51.394;5.454;2022-11-04T05:37:30;12.10;79.30
26821;DHT22;37186;51.394;5.454;2022-11-04T05:40:30;12.10;79.30
26821;DHT22;37186;51.394;5.454;2022-11-04T05:43:32;12.10;79.30
26821;DHT22;37186;51.394;5.454;2022-11-04T05:46:32;12.10;79.30
26821;DHT22;37186;51.394;5.454;2022-11-04T05:49:33;12.10;79.30
26821;DHT22;37186;51.394;5.454;2022-11-04T05:52:33;12.00;79.30
26821;DHT22;37186;51.394;5.454;2022-11-04T05:55:34;12.10;79.30
26821;DHT22;37186;51.394;5.454;2022-11-04T05:58:34;12.10;79.30
26821;DHT22;37186;51.394;5.454;2022-11-04T06:01:39;12.10;79.30
26821;DHT22;37186;51.394;5.454;2022-11-04T06:04:40;12.10;79.30
26821;DHT22;37186;51.394;5.454;2022-11-04T06:07:41;12.10;79.30
26821;DHT22;37186;51.394;5.454;2022-11-04T06:10:42;12.00;79.20
26821;DHT22;37186;51.394;5.454;2022-11-04T06:13:42;12.00;79.20
26821;DHT22;37186;51.394;5.454;2022-11-04T06:16:43;12.00;79.20
26821;DHT22;37186;51.394;5.454;2022-11-04T06:19:44;12.00;79.20
26821;DHT22;37186;51.394;5.454;2022-11-04T06:22:44;12.00;79.30
26821;DHT22;37186;51.394;5.454;2022-11-04T06:25:45;12.00;79.20
26821;DHT22;37186;51.394;5.454;2022-11-04T06:28:45;12.00;79.30
26821;DHT22;37186;51.394;5.454;2022-11-04T06:31:46;12.00;79.30
26821;DHT22;37186;51.394;5.454;2022-11-04T06:34:46;11.90;79.10
26821;DHT22;37186;51.394;5.454;2022-11-04T06:37:47;11.90;79.20
26821;DHT22;37186;51.394;5.454;2022-11-04T06:40:47;12.00;79.30
26821;DHT22;37186;51.394;5.454;2022-11-04T06:43:48;12.00;80.00
26821;DHT22;37186;51.394;5.454;2022-11-04T06:46:48;11.90;79.20
26821;DHT22;37186;51.394;5.454;2022-11-04T06:49:49;11.90;79.10
26821;DHT22;37186;51.394;5.454;2022-11-04T06:52:49;11.90;79.10
26821;DHT22;37186;51.394;5.454;2022-11-04T06:55:50;11.90;79.30
26821;DHT22;37186;51.394;5.454;2022-11-04T06:58:53;11.80;79.20
26821;DHT22;37186;51.394;5.454;2022-11-04T07:01:54;11.90;79.50
26821;DHT22;37186;51.394;5.454;2022-11-04T07:04:54;11.80;79.30
26821;DHT22;37186;51.394;5.454;2022-11-04T07:07:55;11.80;79.30
26821;DHT22;37186;51.394;5.454;2022-11-04T07:10:56;11.80;79.30
26821;DHT22;37186;51.394;5.454;2022-11-04T07:13:56;11.80;79.30
26821;DHT22;37186;51.394;5.454;2022-11-04T07:16:57;11.80;79.40
26821;DHT22;37186;51.394;5.454;2022-11-04T07:19:57;11.80;79.40
26821;DHT22;37186;51.394;5.454;2022-11-04T07:22:58;11.80;79.40
26821;DHT22;37186;51.394;5.454;2022-11-04T07:26:02;11.80;79.30
26821;DHT22;37186;51.394;5.454;2022-11-04T07:29:03;11.90;79.50
26821;DHT22;37186;51.394;5.454;2022-11-04T07:32:05;11.80;79.40
26821;DHT22;37186;51.394;5.454;2022-11-04T07:35:06;11.90;79.50
26821;DHT22;37186;51.394;5.454;2022-11-04T07:38:07;11.90;79.50
26821;DHT22;37186;51.394;5.454;2022-11-04T07:41:07;11.90;79.40
26821;DHT22;37186;51.394;5.454;2022-11-04T07:44:11;11.90;79.50
26821;DHT22;37186;51.394;5.454;2022-11-04T07:47:12;11.90;79.50
26821;DHT22;37186;51.394;5.454;2022-11-04T07:50:12;11.90;79.50
26821;DHT22;37186;51.394;5.454;2022-11-04T07:53:13;11.90;79.50
26821;DHT22;37186;51.394;5.454;2022-11-04T07:56:13;11.90;79.50
26821;DHT22;37186;51.394;5.454;2022-11-04T07:59:14;11.90;79.50
26821;DHT22;37186;51.394;5.454;2022-11-04T08:02:15;11.90;79.50
26821;DHT22;37186;51.394;5.454;2022-11-04T08:05:15;11.90;79.50
26821;DHT22;37186;51.394;5.454;2022-11-04T08:08:16;12.00;79.60
26821;DHT22;37186;51.394;5.454;2022-11-04T08:11:19;12.00;79.60
26821;DHT22;37186;51.394;5.454;2022-11-04T08:14:21;12.00;79.60
26821;DHT22;37186;51.394;5.454;2022-11-04T08:17:21;12.00;79.60
26821;DHT22;37186;51.394;5.454;2022-11-04T08:20:22;12.00;79.60
26821;DHT22;37186;51.394;5.454;2022-11-04T08:23:22;12.00;79.60
26821;DHT22;37186;51.394;5.454;2022-11-04T08:26:23;12.00;79.60
26821;DHT22;37186;51.394;5.454;2022-11-04T08:29:23;12.10;79.80
26821;DHT22;37186;51.394;5.454;2022-11-04T08:32:24;12.10;79.80
26821;DHT22;37186;51.394;5.454;2022-11-04T08:35:24;12.10;79.80
26821;DHT22;37186;51.394;5.454;2022-11-04T08:38:25;12.10;79.70
26821;DHT22;37186;51.394;5.454;2022-11-04T08:41:28;12.10;79.80
26821;DHT22;37186;51.394;5.454;2022-11-04T08:44:28;12.20;79.80
26821;DHT22;37186;51.394;5.454;2022-11-04T08:47:29;12.20;79.80
26821;DHT22;37186;51.394;5.454;2022-11-04T08:50:30;12.20;79.80
26821;DHT22;37186;51.394;5.454;2022-11-04T08:53:30;12.20;79.80
26821;DHT22;37186;51.394;5.454;2022-11-04T08:56:33;12.20;79.90
26821;DHT22;37186;51.394;5.454;2022-11-04T08:59:35;12.30;79.90
26821;DHT22;37186;51.394;5.454;2022-11-04T09:02:35;12.30;79.90
26821;DHT22;37186;51.394;5.454;2022-11-04T09:05:37;12.30;80.00
26821;DHT22;37186;51.394;5.454;2022-11-04T09:08:45;12.30;80.00
26821;DHT22;37186;51.394;5.454;2022-11-04T09:11:46;12.40;80.50
26821;DHT22;37186;51.394;5.454;2022-11-04T09:14:46;12.40;80.10
26821;DHT22;37186;51.394;5.454;2022-11-04T09:17:47;12.40;80.30
26821;DHT22;37186;51.394;5.454;2022-11-04T09:20:47;12.50;80.30
26821;DHT22;37186;51.394;5.454;2022-11-04T09:23:48;12.50;80.40
26821;DHT22;37186;51.394;5.454;2022-11-04T09:26:48;12.50;80.40
26821;DHT22;37186;51.394;5.454;2022-11-04T09:29:49;12.60;80.40
26821;DHT22;37186;51.394;5.454;2022-11-04T09:32:50;12.60;80.40
26821;DHT22;37186;51.394;5.454;2022-11-04T09:35:55;12.70;80.50
26821;DHT22;37186;51.394;5.454;2022-11-04T09:38:56;12.70;80.40
26821;DHT22;37186;51.394;5.454;2022-11-04T09:45:32;12.70;80.40
26821;DHT22;37186;51.394;5.454;2022-11-04T09:48:40;12.80;80.40
26821;DHT22;37186;51.394;5.454;2022-11-04T09:51:42;12.80;80.50
26821;DHT22;37186;51.394;5.454;2022-11-04T09:55:20;12.80;80.50
26821;DHT22;37186;51.394;5.454;2022-11-04T09:58:22;12.90;80.50
26821;DHT22;37186;51.394;5.454;2022-11-04T10:01:39;12.90;80.50
26821;DHT22;37186;51.394;5.454;2022-11-04T10:04:51;13.00;80.60
26821;DHT22;37186;51.394;5.454;2022-11-04T10:11:50;13.00;80.50
26821;DHT22;37186;51.394;5.454;2022-11-04T10:18:54;13.10;80.80
26821;DHT22;37186;51.394;5.454;2022-11-04T10:22:31;13.10;80.60
26821;DHT22;37186;51.394;5.454;2022-11-04T10:25:37;13.10;80.50
26821;DHT22;37186;51.394;5.454;2022-11-04T10:28:42;13.20;80.60
26821;DHT22;37186;51.394;5.454;2022-11-04T10:31:45;13.10;80.70
26821;DHT22;37186;51.394;5.454;2022-11-04T10:37:54;13.20;80.60
26821;DHT22;37186;51.394;5.454;2022-11-04T10:40:57;13.20;80.60
26821;DHT22;37186;51.394;5.454;2022-11-04T10:44:09;13.20;80.50
26821;DHT22;37186;51.394;5.454;2022-11-04T10:47:13;13.20;80.50
26821;DHT22;37186;51.394;5.454;2022-11-04T10:50:46;13.30;80.60
26821;DHT22;37186;51.394;5.454;2022-11-04T10:53:54;13.30;80.60
26821;DHT22;37186;51.394;5.454;2022-11-04T10:56:55;13.30;80.60
26821;DHT22;37186;51.394;5.454;2022-11-04T10:59:58;13.30;80.60
26821;DHT22;37186;51.394;5.454;2022-11-04T11:02:59;13.30;80.60
26821;DHT22;37186;51.394;5.454;2022-11-04T11:06:21;13.40;80.60
26821;DHT22;37186;51.394;5.454;2022-11-04T11:09:26;13.40;80.80
26821;DHT22;37186;51.394;5.454;2022-11-04T11:12:29;13.40;80.70
26821;DHT22;37186;51.394;5.454;2022-11-04T11:15:37;13.40;80.60
26821;DHT22;37186;51.394;5.454;2022-11-04T11:18:39;13.50;80.60
26821;DHT22;37186;51.394;5.454;2022-11-04T11:21:46;13.50;80.60
26821;DHT22;37186;51.394;5.454;2022-11-04T11:24:48;13.50;80.60
26821;DHT22;37186;51.394;5.454;2022-11-04T11:28:09;13.50;80.50
26821;DHT22;37186;51.394;5.454;2022-11-04T11:31:12;13.50;80.50
26821;DHT22;37186;51.394;5.454;2022-11-04T11:34:31;13.50;80.60
26821;DHT22;37186;51.394;5.454;2022-11-04T11:37:32;13.50;80.60
26821;DHT22;37186;51.394;5.454;2022-11-04T11:40:36;13.50;80.50
26821;DHT22;37186;51.394;5.454;2022-11-04T11:43:41;13.50;80.60
26821;DHT22;37186;51.394;5.454;2022-11-04T11:46:52;13.60;80.70
26821;DHT22;37186;51.394;5.454;2022-11-04T11:50:20;13.60;80.70
26821;DHT22;37186;51.394;5.454;2022-11-04T11:53:23;13.60;80.80
26821;DHT22;37186;51.394;5.454;2022-11-04T11:56:37;13.60;80.80
26821;DHT22;37186;51.394;5.454;2022-11-04T11:59:56;13.60;80.80
26821;DHT22;37186;51.394;5.454;2022-11-04T12:03:16;13.70;80.90
26821;DHT22;37186;51.394;5.454;2022-11-04T12:10:07;13.70;80.90
26821;DHT22;37186;51.394;5.454;2022-11-04T12:13:19;13.80;80.90
26821;DHT22;37186;51.394;5.454;2022-11-04T12:30:18;13.90;80.70
26821;DHT22;37186;51.394;5.454;2022-11-04T12:33:34;13.90;80.70
26821;DHT22;37186;51.394;5.454;2022-11-04T12:36:52;13.90;80.60
26821;DHT22;37186;51.394;5.454;2022-11-04T12:40:10;13.90;80.60
26821;DHT22;37186;51.394;5.454;2022-11-04T12:46:22;14.00;80.60
26821;DHT22;37186;51.394;5.454;2022-11-04T12:56:21;13.90;80.30
26821;DHT22;37186;51.394;5.454;2022-11-04T13:02:53;14.00;80.40
26821;DHT22;37186;51.394;5.454;2022-11-04T13:06:05;13.90;80.80
26821;DHT22;37186;51.394;5.454;2022-11-04T13:12:38;13.90;80.40
26821;DHT22;37186;51.394;5.454;2022-11-04T13:15:47;14.00;80.50
26821;DHT22;37186;51.394;5.454;2022-11-04T13:18:49;14.00;80.50
26821;DHT22;37186;51.394;5.454;2022-11-04T13:21:52;14.00;80.50
26821;DHT22;37186;51.394;5.454;2022-11-04T13:24:57;14.00;80.50
26821;DHT22;37186;51.394;5.454;2022-11-04T13:28:00;14.00;80.50
26821;DHT22;37186;51.394;5.454;2022-11-04T13:37:25;14.00;80.40
26821;DHT22;37186;51.394;5.454;2022-11-04T13:44:02;14.00;80.40
26821;DHT22;37186;51.394;5.454;2022-11-04T13:47:19;14.10;80.50
26821;DHT22;37186;51.394;5.454;2022-11-04T13:50:30;14.10;80.50
26821;DHT22;37186;51.394;5.454;2022-11-04T13:53:49;14.10;80.50
26821;DHT22;37186;51.394;5.454;2022-11-04T13:57:02;14.10;80.50
26821;DHT22;37186;51.394;5.454;2022-11-04T14:09:53;14.10;80.60
26821;DHT22;37186;51.394;5.454;2022-11-04T14:22:58;14.20;80.60
26821;DHT22;37186;51.394;5.454;2022-11-04T14:26:02;14.20;80.50
26821;DHT22;37186;51.394;5.454;2022-11-04T14:29:14;14.30;80.50
26821;DHT22;37186;51.394;5.454;2022-11-04T14:32:24;14.20;80.40
26821;DHT22;37186;51.394;5.454;2022-11-04T14:35:27;14.30;80.50
26821;DHT22;37186;51.394;5.454;2022-11-04T14:38:31;14.20;80.40
26821;DHT22;37186;51.394;5.454;2022-11-04T14:44:53;14.30;80.50
26821;DHT22;37186;51.394;5.454;2022-11-04T14:47:56;14.30;80.50
26821;DHT22;37186;51.394;5.454;2022-11-04T14:51:00;14.30;80.40
26821;DHT22;37186;51.394;5.454;2022-11-04T14:54:18;14.30;80.40
26821;DHT22;37186;51.394;5.454;2022-11-04T14:57:21;14.30;80.40
26821;DHT22;37186;51.394;5.454;2022-11-04T15:00:32;14.20;80.30
26821;DHT22;37186;51.394;5.454;2022-11-04T15:03:36;14.20;80.30
26821;DHT22;37186;51.394;5.454;2022-11-04T15:06:37;14.30;80.30
26821;DHT22;37186;51.394;5.454;2022-11-04T15:09:47;14.30;80.20
26821;DHT22;37186;51.394;5.454;2022-11-04T15:12:48;14.30;81.00
26821;DHT22;37186;51.394;5.454;2022-11-04T15:15:52;14.20;80.10
26821;DHT22;37186;51.394;5.454;2022-11-04T15:18:55;14.20;80.10
26821;DHT22;37186;51.394;5.454;2022-11-04T15:21:58;14.20;80.20
26821;DHT22;37186;51.394;5.454;2022-11-04T15:25:02;14.20;81.00
26821;DHT22;37186;51.394;5.454;2022-11-04T15:28:15;14.20;80.20
26821;DHT22;37186;51.394;5.454;2022-11-04T15:31:21;14.20;80.20
26821;DHT22;37186;51.394;5.454;2022-11-04T15:34:24;14.20;80.20
26821;DHT22;37186;51.394;5.454;2022-11-04T15:37:26;14.10;80.20
26821;DHT22;37186;51.394;5.454;2022-11-04T15:40:28;14.20;80.20
26821;DHT22;37186;51.394;5.454;2022-11-04T15:43:31;14.20;80.20
26821;DHT22;37186;51.394;5.454;2022-11-04T15:46:32;14.20;80.20
26821;DHT22;37186;51.394;5.454;2022-11-04T15:49:33;14.20;80.20
26821;DHT22;37186;51.394;5.454;2022-11-04T15:52:36;14.10;80.10
26821;DHT22;37186;51.394;5.454;2022-11-04T15:55:36;14.10;80.10
26821;DHT22;37186;51.394;5.454;2022-11-04T15:58:40;14.10;80.10
26821;DHT22;37186;51.394;5.454;2022-11-04T16:01:49;14.10;80.00
26821;DHT22;37186;51.394;5.454;2022-11-04T16:11:19;14.00;80.00
26821;DHT22;37186;51.394;5.454;2022-11-04T16:14:21;14.00;79.90
26821;DHT22;37186;51.394;5.454;2022-11-04T16:17:23;14.00;80.00
26821;DHT22;37186;51.394;5.454;2022-11-04T16:20:24;13.90;79.80
26821;DHT22;37186;51.394;5.454;2022-11-04T16:23:26;13.90;79.80
26821;DHT22;37186;51.394;5.454;2022-11-04T16:26:35;13.90;79.80
26821;DHT22;37186;51.394;5.454;2022-11-04T16:29:37;13.90;79.70
26821;DHT22;37186;51.394;5.454;2022-11-04T16:33:15;13.80;79.70
26821;DHT22;37186;51.394;5.454;2022-11-04T16:36:17;13.80;79.70
26821;DHT22;37186;51.394;5.454;2022-11-04T16:39:23;13.80;79.80
26821;DHT22;37186;51.394;5.454;2022-11-04T16:42:24;13.70;79.80
26821;DHT22;37186;51.394;5.454;2022-11-04T16:45:29;13.70;79.80
26821;DHT22;37186;51.394;5.454;2022-11-04T16:48:30;13.70;79.80
26821;DHT22;37186;51.394;5.454;2022-11-04T16:51:31;13.70;79.80
26821;DHT22;37186;51.394;5.454;2022-11-04T16:54:32;13.70;79.80
26821;DHT22;37186;51.394;5.454;2022-11-04T16:57:33;13.70;79.90
26821;DHT22;37186;51.394;5.454;2022-11-04T17:00:33;13.70;79.90
26821;DHT22;37186;51.394;5.454;2022-11-04T17:03:34;13.60;79.90
26821;DHT22;37186;51.394;5.454;2022-11-04T17:06:35;13.60;79.90
26821;DHT22;37186;51.394;5.454;2022-11-04T17:09:36;13.60;80.00
26821;DHT22;37186;51.394;5.454;2022-11-04T17:12:36;13.60;79.90
26821;DHT22;37186;51.394;5.454;2022-11-04T17:15:37;13.60;80.00
26821;DHT22;37186;51.394;5.454;2022-11-04T17:18:37;13.60;79.90
26821;DHT22;37186;51.394;5.454;2022-11-04T17:21:38;13.60;79.90
26821;DHT22;37186;51.394;5.454;2022-11-04T17:24:38;13.60;79.90
26821;DHT22;37186;51.394;5.454;2022-11-04T17:27:39;13.60;79.90
26821;DHT22;37186;51.394;5.454;2022-11-04T17:30:41;13.60;79.90
26821;DHT22;37186;51.394;5.454;2022-11-04T17:33:42;13.50;79.80
26821;DHT22;37186;51.394;5.454;2022-11-04T17:36:43;13.50;79.90
26821;DHT22;37186;51.394;5.454;2022-11-04T17:39:43;13.50;79.90
26821;DHT22;37186;51.394;5.454;2022-11-04T17:42:44;13.50;79.90
26821;DHT22;37186;51.394;5.454;2022-11-04T17:46:03;13.50;79.90
26821;DHT22;37186;51.394;5.454;2022-11-04T17:49:24;13.50;79.90
26821;DHT22;37186;51.394;5.454;2022-11-04T17:52:25;13.50;80.00
26821;DHT22;37186;51.394;5.454;2022-11-04T17:55:26;13.50;80.00
26821;DHT22;37186;51.394;5.454;2022-11-04T17:58:29;13.50;79.90
26821;DHT22;37186;51.394;5.454;2022-11-04T18:01:30;13.50;80.00
26821;DHT22;37186;51.394;5.454;2022-11-04T18:04:31;13.50;80.00
26821;DHT22;37186;51.394;5.454;2022-11-04T18:07:33;13.50;80.00
26821;DHT22;37186;51.394;5.454;2022-11-04T18:10:34;13.50;80.00
26821;DHT22;37186;51.394;5.454;2022-11-04T18:13:35;13.50;80.00
26821;DHT22;37186;51.394;5.454;2022-11-04T18:16:35;13.50;80.00
26821;DHT22;37186;51.394;5.454;2022-11-04T18:19:36;13.50;80.00
26821;DHT22;37186;51.394;5.454;2022-11-04T18:22:37;13.50;79.90
26821;DHT22;37186;51.394;5.454;2022-11-04T18:25:39;13.40;79.90
26821;DHT22;37186;51.394;5.454;2022-11-04T18:28:39;13.40;80.00
26821;DHT22;37186;51.394;5.454;2022-11-04T18:31:40;13.50;80.00
26821;DHT22;37186;51.394;5.454;2022-11-04T18:34:41;13.40;79.90
26821;DHT22;37186;51.394;5.454;2022-11-04T18:37:41;13.40;80.00
26821;DHT22;37186;51.394;5.454;2022-11-04T18:40:42;13.40;80.00
26821;DHT22;37186;51.394;5.454;2022-11-04T18:43:43;13.40;79.90
26821;DHT22;37186;51.394;5.454;2022-11-04T18:46:44;13.40;79.90
26821;DHT22;37186;51.394;5.454;2022-11-04T18:49:46;13.40;79.90
26821;DHT22;37186;51.394;5.454;2022-11-04T18:52:46;13.40;79.90
26821;DHT22;37186;51.394;5.454;2022-11-04T18:55:47;13.30;79.90
26821;DHT22;37186;51.394;5.454;2022-11-04T18:58:47;13.30;79.90
26821;DHT22;37186;51.394;5.454;2022-11-04T19:01:48;13.30;80.60
26821;DHT22;37186;51.394;5.454;2022-11-04T19:04:52;13.30;79.90
26821;DHT22;37186;51.394;5.454;2022-11-04T19:07:52;13.30;79.90
26821;DHT22;37186;51.394;5.454;2022-11-04T19:10:53;13.30;79.90
26821;DHT22;37186;51.394;5.454;2022-11-04T19:13:57;13.30;79.90
26821;DHT22;37186;51.394;5.454;2022-11-04T19:16:58;13.30;79.90
26821;DHT22;37186;51.394;5.454;2022-11-04T19:19:59;13.20;79.80
26821;DHT22;37186;51.394;5.454;2022-11-04T19:22:59;13.20;79.70
26821;DHT22;37186;51.394;5.454;2022-11-04T19:26:21;13.20;79.80
26821;DHT22;37186;51.394;5.454;2022-11-04T19:29:22;13.10;79.80
26821;DHT22;37186;51.394;5.454;2022-11-04T19:32:22;13.10;79.80
26821;DHT22;37186;51.394;5.454;2022-11-04T19:35:23;13.10;79.80
26821;DHT22;37186;51.394;5.454;2022-11-04T19:38:25;13.10;79.80
26821;DHT22;37186;51.394;5.454;2022-11-04T19:41:26;13.10;79.90
26821;DHT22;37186;51.394;5.454;2022-11-04T19:44:45;13.00;79.80
26821;DHT22;37186;51.394;5.454;2022-11-04T19:47:46;13.00;79.80
26821;DHT22;37186;51.394;5.454;2022-11-04T19:50:47;13.00;79.80
26821;DHT22;37186;51.394;5.454;2022-11-04T19:53:48;13.00;79.70
26821;DHT22;37186;51.394;5.454;2022-11-04T19:56:49;12.90;80.50
26821;DHT22;37186;51.394;5.454;2022-11-04T19:59:50;12.90;79.70
26821;DHT22;37186;51.394;5.454;2022-11-04T20:02:51;12.90;79.70
26821;DHT22;37186;51.394;5.454;2022-11-04T20:05:52;12.80;79.70
26821;DHT22;37186;51.394;5.454;2022-11-04T20:08:52;12.80;79.70
26821;DHT22;37186;51.394;5.454;2022-11-04T20:11:53;12.80;79.70
26821;DHT22;37186;51.394;5.454;2022-11-04T20:15:12;12.80;79.70
26821;DHT22;37186;51.394;5.454;2022-11-04T20:18:12;12.80;79.70
26821;DHT22;37186;51.394;5.454;2022-11-04T20:21:14;12.70;79.70
26821;DHT22;37186;51.394;5.454;2022-11-04T20:24:14;12.70;79.70
26821;DHT22;37186;51.394;5.454;2022-11-04T20:27:15;12.70;79.70
26821;DHT22;37186;51.394;5.454;2022-11-04T20:30:15;12.60;79.70
26821;DHT22;37186;51.394;5.454;2022-11-04T20:33:16;12.60;79.60
26821;DHT22;37186;51.394;5.454;2022-11-04T20:36:19;12.60;79.70
26821;DHT22;37186;51.394;5.454;2022-11-04T20:39:20;12.60;80.10
26821;DHT22;37186;51.394;5.454;2022-11-04T20:42:21;12.50;79.70
26821;DHT22;37186;51.394;5.454;2022-11-04T20:45:21;12.50;79.70
26821;DHT22;37186;51.394;5.454;2022-11-04T20:48:23;12.50;79.70
26821;DHT22;37186;51.394;5.454;2022-11-04T20:51:28;12.50;79.70
26821;DHT22;37186;51.394;5.454;2022-11-04T20:54:28;12.50;79.70
26821;DHT22;37186;51.394;5.454;2022-11-04T20:57:30;12.40;79.60
26821;DHT22;37186;51.394;5.454;2022-11-04T21:00:31;12.40;79.60
26821;DHT22;37186;51.394;5.454;2022-11-04T21:03:32;12.40;79.70
26821;DHT22;37186;51.394;5.454;2022-11-04T21:06:37;12.30;79.60
26821;DHT22;37186;51.394;5.454;2022-11-04T21:09:38;12.30;79.70
26821;DHT22;37186;51.394;5.454;2022-11-04T21:12:38;12.30;79.60
26821;DHT22;37186;51.394;5.454;2022-11-04T21:15:39;12.30;79.60
26821;DHT22;37186;51.394;5.454;2022-11-04T21:18:39;12.30;79.60
26821;DHT22;37186;51.394;5.454;2022-11-04T21:21:43;12.20;79.60